createdAt,value
2022-11-10T08:20:44.772Z,98807.00
2022-11-10T08:26:24.733Z,98814.00
2022-11-10T08:31:45.952Z,98826.00
2022-11-10T08:37:06.943Z,98847.00
2022-11-10T08:42:28.112Z,98857.00
2022-11-10T08:47:56.126Z,98861.00
2022-11-10T08:53:20.554Z,98861.00
2022-11-10T08:58:50.199Z,98864.00
2022-11-10T09:04:15.940Z,98889.00
2022-11-10T09:09:37.208Z,98889.00
2022-11-10T09:14:58.294Z,98885.00
2022-11-10T09:20:19.969Z,98890.00
2022-11-10T09:25:42.230Z,98903.00
2022-11-10T09:31:03.345Z,98898.00
2022-11-10T09:36:24.896Z,98911.00
2022-11-10T09:41:47.268Z,98919.00
2022-11-10T09:47:55.550Z,98929.00
2022-11-10T09:53:20.856Z,98945.00
2022-11-10T09:58:44.167Z,98935.00
2022-11-10T10:04:24.176Z,98947.00
2022-11-10T10:10:00.479Z,98968.00
2022-11-10T10:15:48.696Z,98948.00
2022-11-10T10:21:38.902Z,98963.00
2022-11-10T10:27:04.382Z,98936.00
2022-11-10T10:32:28.092Z,98938.00
2022-11-10T10:37:50.603Z,98946.00
2022-11-10T10:43:13.118Z,98935.00
2022-11-10T10:48:34.324Z,98949.00
2022-11-10T10:53:55.498Z,98949.00
2022-11-10T10:59:24.567Z,98943.00
2022-11-10T11:04:45.828Z,98955.00
2022-11-10T11:10:28.892Z,98951.00
2022-11-10T11:16:05.383Z,98969.00
2022-11-10T11:21:37.278Z,98980.00
2022-11-10T11:27:09.750Z,98965.00
2022-11-10T11:32:51.813Z,98967.00
2022-11-10T11:38:40.894Z,98977.00
2022-11-10T11:44:16.920Z,98977.00
2022-11-10T11:50:22.742Z,98967.00
2022-11-10T11:56:19.877Z,98972.00
2022-11-10T12:02:04.341Z,98982.00
2022-11-10T12:07:47.570Z,98989.00
2022-11-10T12:13:50.953Z,98993.00
2022-11-10T12:19:15.257Z,98999.00
2022-11-10T12:24:51.523Z,98986.00
2022-11-10T12:30:15.176Z,99005.00
2022-11-10T12:35:41.588Z,99005.00
2022-11-10T12:41:11.324Z,99000.00
2022-11-10T12:46:32.432Z,99002.00
2022-11-10T12:52:16.793Z,99012.00
2022-11-10T12:57:38.444Z,99024.00
2022-11-10T13:03:00.453Z,99025.00
2022-11-10T13:08:32.968Z,99030.00
2022-11-10T13:14:00.330Z,99038.00
2022-11-10T13:19:21.745Z,99035.00
2022-11-10T13:24:44.585Z,99049.00
2022-11-10T13:30:10.176Z,99048.00
2022-11-10T13:35:37.312Z,99042.00
2022-11-10T13:41:18.756Z,99049.00
2022-11-10T13:46:53.969Z,99051.00
2022-11-10T13:52:26.980Z,99064.00
2022-11-10T13:58:40.388Z,99064.00
2022-11-10T14:04:03.225Z,99078.00
2022-11-10T14:09:35.175Z,99088.00
2022-11-10T14:15:03.573Z,99088.00
2022-11-10T14:20:27.316Z,99106.00
2022-11-10T14:26:03.678Z,99116.00
2022-11-10T14:31:26.339Z,99120.00
2022-11-10T14:36:52.445Z,99141.00
2022-11-10T14:42:20.768Z,99141.00
2022-11-10T14:47:42.638Z,99145.00
2022-11-10T14:53:31.598Z,99147.00
2022-11-10T14:58:53.351Z,99149.00
2022-11-10T15:04:16.032Z,99147.00
2022-11-10T15:09:37.547Z,99147.00
2022-11-10T15:15:00.615Z,99149.00
2022-11-10T15:20:31.748Z,99171.00
2022-11-10T15:25:53.501Z,99169.00
2022-11-10T15:31:25.412Z,99174.00
2022-11-10T15:36:46.819Z,99164.00
2022-11-10T15:42:15.286Z,99170.00
2022-11-10T15:47:36.790Z,99181.00
2022-11-10T15:52:58.432Z,99181.00
2022-11-10T15:58:24.020Z,99173.00
2022-11-10T16:03:45.905Z,99186.00
2022-11-10T16:09:07.979Z,99198.00
2022-11-10T16:14:29.614Z,99207.00
2022-11-10T16:19:52.759Z,99215.00
2022-11-10T16:25:21.534Z,99219.00
2022-11-10T16:30:45.992Z,99216.00
2022-11-10T16:36:23.652Z,99233.00
2022-11-10T16:41:45.312Z,99241.00
2022-11-10T16:47:13.543Z,99248.00
2022-11-10T16:52:34.911Z,99244.00
2022-11-10T16:57:56.046Z,99250.00
2022-11-10T17:03:37.094Z,99249.00
2022-11-10T17:09:08.280Z,99249.00
2022-11-10T17:14:29.684Z,99253.00
2022-11-10T17:19:54.219Z,99250.00
2022-11-10T17:25:31.340Z,99257.00
2022-11-10T17:30:53.111Z,99265.00
2022-11-10T17:36:19.862Z,99267.00
2022-11-10T17:41:41.339Z,99281.00
2022-11-10T17:47:03.072Z,99285.00
2022-11-10T17:52:24.145Z,99296.00
2022-11-10T17:57:45.818Z,99309.00
2022-11-10T18:03:10.365Z,99298.00
2022-11-10T18:08:31.433Z,99286.00
2022-11-10T18:13:52.857Z,99306.00
2022-11-10T18:19:14.099Z,99295.00
2022-11-10T18:24:35.268Z,99306.00
2022-11-10T18:29:56.334Z,99306.00
2022-11-10T18:35:18.005Z,99313.00
2022-11-10T18:40:39.510Z,99324.00
2022-11-10T18:46:00.454Z,99327.00
2022-11-10T18:51:21.811Z,99332.00
2022-11-10T18:56:42.804Z,99346.00
2022-11-10T19:02:04.164Z,99350.00
2022-11-10T19:07:26.013Z,99341.00
2022-11-10T19:12:47.171Z,99340.00
2022-11-10T19:18:08.620Z,99343.00
2022-11-10T19:23:29.626Z,99333.00
2022-11-10T19:28:53.482Z,99326.00
2022-11-10T19:34:18.623Z,99320.00
2022-11-10T19:39:39.961Z,99309.00
2022-11-10T19:45:01.715Z,99320.00
2022-11-10T19:50:23.239Z,99329.00
2022-11-10T19:55:44.378Z,99337.00
2022-11-10T20:01:07.014Z,99338.00
2022-11-10T20:06:28.324Z,99342.00
2022-11-10T20:11:49.496Z,99349.00
2022-11-10T20:17:10.593Z,99355.00
2022-11-10T20:22:31.727Z,99370.00
2022-11-10T20:27:56.171Z,99362.00
2022-11-10T20:33:17.430Z,99368.00
2022-11-10T20:38:38.805Z,99379.00
2022-11-10T20:43:59.993Z,99371.00
2022-11-10T20:49:21.316Z,99375.00
2022-11-10T20:54:43.808Z,99368.00
2022-11-10T21:00:05.431Z,99376.00
2022-11-10T21:05:26.864Z,99356.00
2022-11-10T21:10:56.427Z,99351.00
2022-11-10T21:16:17.647Z,99349.00
2022-11-10T21:21:39.257Z,99361.00
2022-11-10T21:27:00.695Z,99347.00
2022-11-10T21:32:22.615Z,99366.00
2022-11-10T21:37:43.844Z,99362.00
2022-11-10T21:43:04.897Z,99377.00
2022-11-10T21:48:25.949Z,99386.00
2022-11-10T21:53:47.476Z,99390.00
2022-11-10T21:59:08.736Z,99393.00
